createdAt,value
2019-05-28T00:01:57.964Z,14.75
2019-05-28T00:04:26.896Z,15.70
2019-05-28T00:06:57.143Z,19.73
2019-05-28T00:09:25.979Z,18.67
2019-05-28T00:11:54.690Z,26.12
2019-05-28T00:14:23.327Z,17.12
2019-05-28T00:16:51.985Z,13.00
2019-05-28T00:19:20.652Z,12.55
2019-05-28T00:21:49.350Z,19.00
2019-05-28T00:24:18.027Z,17.55
2019-05-28T00:26:46.736Z,17.45
2019-05-28T00:29:15.435Z,14.10
2019-05-28T00:31:44.052Z,16.20
2019-05-28T00:34:12.673Z,18.65
2019-05-28T00:36:41.350Z,18.70
2019-05-28T00:39:10.126Z,12.70
2019-05-28T00:41:38.807Z,15.08
2019-05-28T00:44:07.591Z,13.88
2019-05-28T00:46:36.296Z,10.13
2019-05-28T00:49:05.165Z,8.88
2019-05-28T00:51:35.797Z,11.00
2019-05-28T00:54:04.774Z,13.98
2019-05-28T00:56:33.757Z,13.50
2019-05-28T00:59:03.135Z,16.12
2019-05-28T01:01:31.773Z,18.07
2019-05-28T01:04:00.536Z,13.72
2019-05-28T01:06:29.175Z,13.22
2019-05-28T01:08:57.883Z,16.27
2019-05-28T01:11:26.657Z,13.00
2019-05-28T01:13:55.305Z,14.28
2019-05-28T01:16:23.994Z,16.32
2019-05-28T01:18:52.668Z,15.58
2019-05-28T01:21:21.342Z,16.12
2019-05-28T01:23:50.049Z,15.45
2019-05-28T01:26:18.757Z,12.28
2019-05-28T01:28:47.362Z,11.40
2019-05-28T01:31:16.111Z,10.23
2019-05-28T01:33:44.717Z,11.60
2019-05-28T01:36:13.537Z,8.30
2019-05-28T01:38:42.163Z,13.70
2019-05-28T01:41:10.846Z,11.08
2019-05-28T01:43:39.541Z,9.13
2019-05-28T01:46:08.358Z,14.00
2019-05-28T01:48:36.966Z,33.33
2019-05-28T01:51:05.633Z,25.45
2019-05-28T01:53:34.352Z,34.00
2019-05-28T01:56:03.049Z,50.60
2019-05-28T01:58:31.853Z,42.90
2019-05-28T02:01:12.066Z,12.98
2019-05-28T02:03:30.782Z,20.82
2019-05-28T02:06:00.634Z,16.42
2019-05-28T02:08:29.314Z,13.20
2019-05-28T02:10:57.944Z,13.20
2019-05-28T02:13:26.700Z,14.63
2019-05-28T02:15:55.437Z,15.50
2019-05-28T02:18:24.102Z,9.38
2019-05-28T02:20:53.852Z,17.00
2019-05-28T02:23:22.551Z,14.70
2019-05-28T02:25:51.463Z,14.18
2019-05-28T02:28:20.244Z,14.78
2019-05-28T02:30:48.952Z,12.28
2019-05-28T02:33:17.628Z,18.62
2019-05-28T02:35:46.330Z,14.33
2019-05-28T02:38:14.962Z,13.55
2019-05-28T02:40:43.724Z,9.00
2019-05-28T02:43:12.498Z,11.48
2019-05-28T02:45:41.173Z,12.88
2019-05-28T02:48:09.904Z,13.55
2019-05-28T02:50:53.609Z,10.88
2019-05-28T02:53:22.394Z,9.18
2019-05-28T02:55:52.770Z,14.83
2019-05-28T02:58:23.630Z,17.23
2019-05-28T03:00:53.717Z,15.00
2019-05-28T03:03:24.775Z,15.65
2019-05-28T03:05:55.454Z,13.40
2019-05-28T03:08:25.665Z,15.60
2019-05-28T03:11:02.441Z,19.07
2019-05-28T03:13:24.716Z,14.65
2019-05-28T03:15:56.502Z,10.85
2019-05-28T03:18:27.736Z,12.00
2019-05-28T03:20:58.453Z,15.00
2019-05-28T03:23:30.392Z,20.90
2019-05-28T03:25:59.216Z,14.95
2019-05-28T03:28:28.093Z,19.12
2019-05-28T03:30:56.875Z,16.93
2019-05-28T03:33:25.626Z,16.90
2019-05-28T03:35:56.837Z,18.45
2019-05-28T03:38:27.301Z,19.60
2019-05-28T03:40:55.992Z,16.00
2019-05-28T03:43:24.651Z,13.72
2019-05-28T03:45:53.364Z,18.75
2019-05-28T03:48:22.038Z,14.33
2019-05-28T03:50:50.676Z,16.12
2019-05-28T03:53:19.435Z,11.38
2019-05-28T03:55:48.057Z,13.55
2019-05-28T03:58:16.671Z,19.55
2019-05-28T04:00:45.587Z,20.75
2019-05-28T04:03:14.198Z,14.87
2019-05-28T04:05:42.860Z,18.90
2019-05-28T04:08:11.532Z,15.53
2019-05-28T04:10:40.254Z,14.15
2019-05-28T04:13:09.174Z,12.98
2019-05-28T04:15:37.785Z,17.15
2019-05-28T04:18:06.545Z,20.95
2019-05-28T04:20:35.266Z,13.32
2019-05-28T04:23:07.056Z,9.28
2019-05-28T04:25:35.648Z,8.90
2019-05-28T04:28:04.346Z,10.85
2019-05-28T04:30:32.950Z,11.78
2019-05-28T04:33:01.597Z,9.90
2019-05-28T04:35:30.282Z,11.45
2019-05-28T04:37:58.981Z,10.13
2019-05-28T04:40:27.635Z,6.72
2019-05-28T04:42:56.301Z,8.20
2019-05-28T04:45:25.133Z,7.35
2019-05-28T04:47:53.758Z,6.42
2019-05-28T04:50:22.498Z,9.38
2019-05-28T04:52:53.351Z,7.70
2019-05-28T04:55:22.135Z,11.30
2019-05-28T04:57:51.695Z,8.63
2019-05-28T05:00:20.433Z,5.30
2019-05-28T05:02:59.570Z,8.30
2019-05-28T05:05:19.670Z,7.50
2019-05-28T05:07:48.314Z,8.90
2019-05-28T05:10:19.281Z,7.58
2019-05-28T05:12:47.477Z,7.78
2019-05-28T05:15:17.249Z,9.80
2019-05-28T05:17:45.863Z,5.20
2019-05-28T05:20:15.035Z,8.15
2019-05-28T05:22:43.709Z,5.83
2019-05-28T05:25:12.785Z,6.05
2019-05-28T05:27:41.431Z,5.75
2019-05-28T05:30:10.487Z,9.75
2019-05-28T05:32:39.133Z,7.40
2019-05-28T05:35:08.107Z,5.58
2019-05-28T05:37:36.770Z,5.83
2019-05-28T05:40:06.801Z,7.70
2019-05-28T05:42:35.575Z,11.75
2019-05-28T05:45:07.608Z,7.08
2019-05-28T05:47:36.616Z,7.75
2019-05-28T05:50:06.990Z,7.72
2019-05-28T05:52:35.644Z,16.80
2019-05-28T05:55:06.682Z,5.47
2019-05-28T05:57:35.358Z,7.17
2019-05-28T06:00:05.940Z,7.10
2019-05-28T06:02:34.749Z,4.70
2019-05-28T06:05:04.794Z,7.58
2019-05-28T06:07:33.450Z,9.03
2019-05-28T06:10:02.115Z,5.08
2019-05-28T06:12:30.777Z,3.37
2019-05-28T06:14:59.610Z,9.10
2019-05-28T06:17:28.548Z,4.87
2019-05-28T06:19:57.145Z,4.85
2019-05-28T06:22:25.929Z,8.83
2019-05-28T06:24:54.604Z,4.25
2019-05-28T06:27:23.335Z,7.15
2019-05-28T06:29:52.125Z,6.37
2019-05-28T06:32:20.812Z,6.17
2019-05-28T06:34:49.484Z,8.60
2019-05-28T06:37:18.343Z,6.67
2019-05-28T06:39:46.973Z,9.35
2019-05-28T06:42:15.759Z,4.67
2019-05-28T06:44:44.834Z,6.95
2019-05-28T06:47:13.631Z,5.58
2019-05-28T06:49:42.418Z,4.17
2019-05-28T06:52:11.811Z,5.37
2019-05-28T06:54:40.458Z,4.70
2019-05-28T06:57:22.361Z,6.97
2019-05-28T06:59:39.841Z,9.43
2019-05-28T07:02:08.970Z,5.97
2019-05-28T07:04:37.636Z,6.90
2019-05-28T07:07:06.565Z,7.58
2019-05-28T07:09:35.227Z,10.03
2019-05-28T07:12:04.197Z,6.33
2019-05-28T07:14:33.397Z,5.20
2019-05-28T07:17:02.100Z,3.22
2019-05-28T07:19:31.158Z,10.50
2019-05-28T07:22:00.764Z,5.15
2019-05-28T07:25:01.468Z,7.97
2019-05-28T07:27:30.247Z,10.08
2019-05-28T07:29:59.544Z,4.83
2019-05-28T07:32:28.245Z,8.08
2019-05-28T07:34:56.917Z,10.00
2019-05-28T07:37:25.541Z,6.55
2019-05-28T07:39:54.319Z,5.65
2019-05-28T07:42:32.408Z,13.20
2019-05-28T07:44:53.258Z,4.92
2019-05-28T07:47:21.894Z,5.15
2019-05-28T07:49:50.508Z,4.65
2019-05-28T07:52:19.196Z,7.17
2019-05-28T07:54:47.834Z,8.80
2019-05-28T07:57:16.526Z,6.37
2019-05-28T07:59:45.152Z,5.62
2019-05-28T08:02:13.748Z,6.58
2019-05-28T08:04:47.137Z,4.15
2019-05-28T08:07:12.910Z,6.12
2019-05-28T08:09:41.647Z,6.35
2019-05-28T08:12:10.453Z,5.83
2019-05-28T08:14:39.222Z,11.00
2019-05-28T08:17:07.857Z,8.80
2019-05-28T08:19:36.706Z,5.37
2019-05-28T08:22:05.675Z,7.45
2019-05-28T08:24:34.389Z,6.62
2019-05-28T08:27:03.138Z,3.75
2019-05-28T08:29:31.797Z,3.22
2019-05-28T08:32:00.553Z,5.92
2019-05-28T08:34:29.193Z,5.35
2019-05-28T08:37:05.797Z,5.87
2019-05-28T08:39:32.708Z,11.05
2019-05-28T08:41:58.753Z,6.37
2019-05-28T08:44:27.458Z,4.62
2019-05-28T08:46:56.118Z,5.08
2019-05-28T08:49:24.800Z,7.87
2019-05-28T08:51:54.449Z,7.33
2019-05-28T08:54:23.159Z,3.92
2019-05-28T08:56:51.869Z,5.35
2019-05-28T08:59:22.522Z,6.95
2019-05-28T09:01:51.257Z,6.58
2019-05-28T09:04:20.077Z,7.05
2019-05-28T09:06:48.708Z,7.15
2019-05-28T09:09:17.391Z,5.33
2019-05-28T09:11:46.084Z,5.50
2019-05-28T09:14:14.758Z,5.10
2019-05-28T09:16:43.498Z,5.10
2019-05-28T09:19:12.173Z,6.90
2019-05-28T09:21:40.844Z,5.37
2019-05-28T09:24:09.552Z,3.05
2019-05-28T09:27:02.048Z,6.15
2019-05-28T09:29:30.759Z,6.97
2019-05-28T09:32:00.465Z,2.83
2019-05-28T09:34:29.071Z,6.70
2019-05-28T09:36:58.441Z,4.03
2019-05-28T09:39:27.208Z,13.03
2019-05-28T09:41:56.899Z,11.45
2019-05-28T09:44:29.031Z,11.43
2019-05-28T09:46:57.714Z,8.10
2019-05-28T09:49:26.410Z,5.53
2019-05-28T09:51:55.220Z,5.30
2019-05-28T09:54:23.854Z,7.05
2019-05-28T09:56:54.273Z,4.37
2019-05-28T09:59:22.958Z,10.48
2019-05-28T10:01:52.094Z,6.97
2019-05-28T10:04:21.011Z,5.95
2019-05-28T10:06:49.616Z,8.75
2019-05-28T10:09:18.389Z,7.10
2019-05-28T10:11:48.023Z,6.70
2019-05-28T10:14:19.113Z,5.28
2019-05-28T10:16:47.781Z,6.78
2019-05-28T10:19:16.505Z,4.92
2019-05-28T10:21:47.394Z,5.62
2019-05-28T10:24:16.099Z,7.05
2019-05-28T10:26:55.481Z,5.15
2019-05-28T10:29:24.228Z,20.92
2019-05-28T10:31:52.920Z,32.60
2019-05-28T10:34:22.054Z,17.07
2019-05-28T10:36:50.703Z,7.22
2019-05-28T10:39:34.270Z,7.12
2019-05-28T10:42:12.863Z,9.20
2019-05-28T10:44:45.027Z,6.45
2019-05-28T10:47:11.967Z,5.08
2019-05-28T10:49:40.607Z,4.75
2019-05-28T10:52:09.600Z,5.75
2019-05-28T10:54:38.362Z,12.45
2019-05-28T10:57:07.074Z,5.92
2019-05-28T10:59:35.831Z,5.17
2019-05-28T11:02:04.671Z,6.87
2019-05-28T11:04:33.399Z,7.15
2019-05-28T11:07:02.196Z,14.78
2019-05-28T11:09:31.017Z,10.10
2019-05-28T11:11:59.775Z,12.15
2019-05-28T11:14:28.772Z,3.00
2019-05-28T11:16:57.693Z,4.80
2019-05-28T11:19:26.612Z,6.62
2019-05-28T11:21:55.284Z,16.48
2019-05-28T11:24:24.228Z,15.58
2019-05-28T11:26:52.985Z,3.98
2019-05-28T11:29:21.660Z,7.85
2019-05-28T11:31:50.556Z,2.75
2019-05-28T11:34:19.604Z,5.05
2019-05-28T11:36:48.280Z,4.55
2019-05-28T11:39:16.945Z,2.95
2019-05-28T11:41:45.825Z,3.75
2019-05-28T11:44:14.894Z,4.30
2019-05-28T11:46:43.636Z,4.72
2019-05-28T11:49:12.629Z,6.67
2019-05-28T11:51:41.383Z,4.92
2019-05-28T11:54:10.207Z,6.20
2019-05-28T11:56:38.981Z,4.78
2019-05-28T11:59:07.832Z,5.70
2019-05-28T12:01:36.875Z,6.42
2019-05-28T12:04:05.805Z,6.00
2019-05-28T12:06:38.137Z,4.08
2019-05-28T12:09:07.249Z,6.55
2019-05-28T12:11:36.048Z,5.35
2019-05-28T12:14:05.005Z,7.35
2019-05-28T12:16:33.949Z,6.03
2019-05-28T12:19:02.808Z,3.55
2019-05-28T12:21:31.592Z,22.52
2019-05-28T12:24:00.280Z,9.40
2019-05-28T12:26:29.414Z,19.35
2019-05-28T12:28:58.485Z,11.00
2019-05-28T12:31:27.119Z,13.53
2019-05-28T12:33:55.930Z,10.78
2019-05-28T12:36:24.584Z,10.30
2019-05-28T12:38:53.249Z,4.10
2019-05-28T12:41:22.003Z,9.10
2019-05-28T12:43:50.628Z,9.05
2019-05-28T12:46:19.362Z,26.12
2019-05-28T12:48:48.045Z,11.10
2019-05-28T12:51:16.851Z,5.83
2019-05-28T12:53:50.833Z,4.58
2019-05-28T12:56:15.973Z,3.50
2019-05-28T12:58:44.694Z,4.47
2019-05-28T13:01:13.525Z,3.37
2019-05-28T13:03:42.702Z,4.70
2019-05-28T13:06:11.509Z,3.33
2019-05-28T13:08:40.315Z,4.40
2019-05-28T13:11:09.028Z,3.60
2019-05-28T13:13:37.631Z,11.53
2019-05-28T13:16:06.357Z,3.75
2019-05-28T13:18:35.116Z,6.10
2019-05-28T13:21:03.916Z,8.55
2019-05-28T13:23:32.593Z,9.63
2019-05-28T13:26:01.297Z,7.47
2019-05-28T13:28:30.034Z,4.03
2019-05-28T13:30:58.889Z,3.05
2019-05-28T13:33:27.583Z,6.75
2019-05-28T13:35:58.489Z,5.53
2019-05-28T13:38:27.872Z,5.37
2019-05-28T13:40:56.673Z,15.72
2019-05-28T13:43:25.485Z,9.13
2019-05-28T13:45:54.168Z,6.05
2019-05-28T13:48:22.965Z,6.28
2019-05-28T13:50:51.861Z,4.92
2019-05-28T13:53:20.708Z,2.67
2019-05-28T13:55:49.551Z,6.17
2019-05-28T13:58:18.206Z,3.25
2019-05-28T14:00:47.107Z,11.63
2019-05-28T14:03:15.751Z,11.93
2019-05-28T14:05:44.613Z,14.25
2019-05-28T14:08:13.325Z,8.55
2019-05-28T14:10:45.260Z,6.85
2019-05-28T14:13:14.214Z,6.08
2019-05-28T14:15:42.974Z,4.15
2019-05-28T14:18:11.712Z,6.60
2019-05-28T14:20:40.407Z,5.15
2019-05-28T14:23:09.170Z,8.90
2019-05-28T14:25:37.992Z,4.97
2019-05-28T14:28:06.720Z,6.25
2019-05-28T14:30:35.808Z,5.22
2019-05-28T14:33:04.664Z,2.17
2019-05-28T14:35:33.383Z,6.87
2019-05-28T14:38:02.265Z,16.23
2019-05-28T14:40:33.285Z,5.87
2019-05-28T14:43:02.257Z,6.35
2019-05-28T14:45:30.945Z,5.47
2019-05-28T14:47:59.699Z,9.68
2019-05-28T14:50:28.373Z,4.28
2019-05-28T14:52:57.265Z,9.63
2019-05-28T14:55:26.164Z,3.40
2019-05-28T14:57:54.965Z,6.78
2019-05-28T15:00:24.827Z,4.65
2019-05-28T15:02:53.640Z,6.47
2019-05-28T15:05:22.446Z,2.40
2019-05-28T15:07:53.002Z,5.90
2019-05-28T15:10:22.062Z,5.47
2019-05-28T15:12:50.954Z,2.35
2019-05-28T15:15:34.673Z,17.70
2019-05-28T15:17:50.633Z,7.58
2019-05-28T15:20:19.959Z,6.67
2019-05-28T15:22:48.707Z,7.00
2019-05-28T15:25:17.755Z,6.95
2019-05-28T15:27:47.128Z,6.58
2019-05-28T15:30:16.633Z,6.35
2019-05-28T15:32:45.312Z,5.08
2019-05-28T15:35:14.743Z,4.40
2019-05-28T15:37:43.414Z,5.83
2019-05-28T15:40:14.056Z,7.17
2019-05-28T15:42:42.903Z,4.90
2019-05-28T15:45:13.727Z,6.85
2019-05-28T15:47:44.841Z,6.65
2019-05-28T15:50:13.557Z,8.73
2019-05-28T15:52:42.521Z,11.75
2019-05-28T15:55:11.920Z,5.62
2019-05-28T15:57:40.619Z,5.08
2019-05-28T16:00:15.074Z,6.47
2019-05-28T16:02:43.849Z,3.17
2019-05-28T16:05:12.827Z,3.72
2019-05-28T16:07:41.618Z,4.40
2019-05-28T16:10:10.766Z,4.65
2019-05-28T16:12:39.627Z,12.65
2019-05-28T16:15:09.735Z,4.80
2019-05-28T16:17:38.498Z,4.33
2019-05-28T16:20:08.289Z,4.25
2019-05-28T16:22:36.970Z,2.45
2019-05-28T16:25:09.715Z,6.47
2019-05-28T16:27:38.584Z,1.98
2019-05-28T16:30:09.103Z,3.80
2019-05-28T16:32:38.016Z,8.50
2019-05-28T16:35:07.562Z,5.62
2019-05-28T16:37:36.515Z,5.83
2019-05-28T16:40:15.793Z,3.40
2019-05-28T16:42:40.918Z,4.35
2019-05-28T16:45:10.528Z,3.47
2019-05-28T16:47:39.236Z,28.77
2019-05-28T16:50:08.777Z,6.83
2019-05-28T16:52:37.486Z,6.40
2019-05-28T16:55:06.725Z,6.60
2019-05-28T16:57:35.533Z,6.25
2019-05-28T17:00:08.314Z,5.70
2019-05-28T17:02:37.061Z,3.15
2019-05-28T17:05:09.245Z,7.15
2019-05-28T17:07:38.080Z,4.37
2019-05-28T17:10:07.332Z,4.95
2019-05-28T17:12:36.307Z,6.55
2019-05-28T17:15:08.882Z,7.20
2019-05-28T17:17:37.625Z,5.85
2019-05-28T17:20:11.500Z,3.98
2019-05-28T17:22:40.210Z,3.15
2019-05-28T17:25:12.049Z,15.93
2019-05-28T17:27:40.894Z,11.65
2019-05-28T17:30:23.274Z,4.40
2019-05-28T17:32:40.473Z,25.68
2019-05-28T17:35:09.449Z,5.00
2019-05-28T17:37:38.127Z,6.83
2019-05-28T17:40:07.413Z,2.00
2019-05-28T17:42:36.187Z,5.70
2019-05-28T17:45:05.759Z,6.78
2019-05-28T17:47:42.510Z,1.82
2019-05-28T17:50:06.364Z,2.87
2019-05-28T17:52:35.992Z,4.15
2019-05-28T17:55:08.594Z,2.55
2019-05-28T17:57:37.269Z,3.72
2019-05-28T18:00:06.614Z,4.25
2019-05-28T18:02:35.713Z,3.52
2019-05-28T18:05:07.821Z,6.22
2019-05-28T18:07:36.519Z,18.52
2019-05-28T18:10:12.102Z,4.85
2019-05-28T18:12:40.901Z,10.82
2019-05-28T18:15:10.084Z,14.70
2019-05-28T18:17:38.766Z,18.55
2019-05-28T18:20:14.998Z,3.02
2019-05-28T18:22:43.130Z,5.22
2019-05-28T18:25:11.949Z,7.58
2019-05-28T18:27:40.548Z,3.75
2019-05-28T18:30:09.975Z,127.32
2019-05-28T18:32:38.798Z,148.47
2019-05-28T18:35:08.987Z,91.30
2019-05-28T18:37:37.889Z,23.52
2019-05-28T18:40:08.913Z,28.95
2019-05-28T18:42:37.741Z,18.15
2019-05-28T18:45:08.097Z,4.37
2019-05-28T18:47:36.842Z,7.22
2019-05-28T18:50:07.533Z,11.57
2019-05-28T18:52:36.331Z,20.10
2019-05-28T18:55:07.068Z,8.75
2019-05-28T18:57:35.761Z,21.40
2019-05-28T19:00:06.880Z,8.03
2019-05-28T19:02:35.802Z,5.95
2019-05-28T19:05:06.666Z,6.33
2019-05-28T19:07:35.401Z,5.10
2019-05-28T19:10:06.293Z,11.28
2019-05-28T19:12:35.135Z,8.95
2019-05-28T19:15:07.914Z,13.35
2019-05-28T19:17:36.959Z,12.68
2019-05-28T19:20:07.529Z,13.32
2019-05-28T19:22:39.672Z,4.65
2019-05-28T19:25:10.509Z,4.00
2019-05-28T19:27:39.455Z,3.52
2019-05-28T19:30:10.379Z,4.70
2019-05-28T19:32:39.239Z,6.12
2019-05-28T19:35:08.562Z,5.75
2019-05-28T19:37:37.791Z,6.78
2019-05-28T19:40:07.210Z,9.18
2019-05-28T19:42:35.996Z,3.55
2019-05-28T19:45:07.955Z,5.87
2019-05-28T19:47:36.660Z,4.17
2019-05-28T19:50:08.645Z,2.52
2019-05-28T19:52:37.568Z,3.92
2019-05-28T19:55:07.407Z,3.77
2019-05-28T19:57:36.089Z,7.45
2019-05-28T20:00:07.594Z,6.65
2019-05-28T20:02:36.349Z,7.45
2019-05-28T20:05:06.931Z,7.53
2019-05-28T20:07:36.058Z,6.03
2019-05-28T20:10:06.379Z,7.95
2019-05-28T20:12:36.645Z,6.65
2019-05-28T20:15:12.809Z,6.60
2019-05-28T20:17:41.453Z,8.30
2019-05-28T20:20:12.233Z,8.75
2019-05-28T20:22:41.036Z,6.92
2019-05-28T20:25:10.341Z,8.55
2019-05-28T20:27:39.260Z,9.53
2019-05-28T20:30:11.358Z,8.85
2019-05-28T20:32:40.148Z,6.08
2019-05-28T20:35:11.025Z,6.83
2019-05-28T20:37:39.977Z,5.67
2019-05-28T20:40:10.285Z,7.25
2019-05-28T20:42:39.215Z,7.00
2019-05-28T20:45:11.893Z,7.12
2019-05-28T20:47:40.087Z,7.80
2019-05-28T20:50:09.644Z,7.42
2019-05-28T20:52:38.452Z,9.08
2019-05-28T20:55:08.480Z,8.50
2019-05-28T20:57:37.147Z,5.78
2019-05-28T21:00:08.649Z,4.60
2019-05-28T21:02:37.530Z,5.55
2019-05-28T21:05:10.473Z,7.55
2019-05-28T21:07:39.241Z,7.62
2019-05-28T21:10:10.289Z,7.40
2019-05-28T21:12:44.469Z,8.80
2019-05-28T21:15:10.167Z,6.53
2019-05-28T21:17:38.916Z,10.68
2019-05-28T21:20:11.317Z,13.15
2019-05-28T21:22:40.229Z,9.85
2019-05-28T21:25:09.325Z,13.32
2019-05-28T21:27:38.179Z,7.42
2019-05-28T21:30:07.551Z,6.72
2019-05-28T21:32:36.411Z,7.42
2019-05-28T21:35:08.573Z,9.45
2019-05-28T21:37:37.573Z,9.50
2019-05-28T21:40:07.843Z,6.92
2019-05-28T21:42:36.939Z,7.22
2019-05-28T21:45:09.195Z,7.75
2019-05-28T21:47:37.832Z,9.38
2019-05-28T21:50:07.885Z,7.87
2019-05-28T21:52:37.121Z,5.72
2019-05-28T21:55:07.477Z,7.45
2019-05-28T21:57:36.172Z,10.82
2019-05-28T22:00:14.467Z,3.83
2019-05-28T22:02:43.162Z,7.60
2019-05-28T22:05:13.458Z,8.53
2019-05-28T22:07:42.198Z,10.38
2019-05-28T22:10:11.021Z,5.90
2019-05-28T22:12:39.888Z,6.45
2019-05-28T22:15:08.991Z,8.83
2019-05-28T22:17:37.625Z,8.00
2019-05-28T22:20:08.810Z,9.70
2019-05-28T22:22:37.528Z,7.83
2019-05-28T22:25:07.194Z,6.65
2019-05-28T22:27:35.852Z,6.47
2019-05-28T22:30:07.663Z,7.12
2019-05-28T22:32:36.474Z,8.38
2019-05-28T22:35:06.863Z,7.75
2019-05-28T22:37:35.571Z,5.55
2019-05-28T22:40:07.675Z,8.90
2019-05-28T22:42:36.373Z,8.58
2019-05-28T22:45:08.627Z,11.57
2019-05-28T22:47:37.269Z,9.25
2019-05-28T22:50:22.212Z,8.28
2019-05-28T22:52:40.006Z,7.47
2019-05-28T22:55:09.497Z,7.75
2019-05-28T22:57:38.217Z,6.12
2019-05-28T23:00:08.881Z,7.62
2019-05-28T23:02:38.664Z,7.40
2019-05-28T23:05:07.429Z,9.70
2019-05-28T23:07:36.103Z,7.00
2019-05-28T23:10:07.855Z,8.35
2019-05-28T23:12:36.572Z,8.45
2019-05-28T23:15:08.069Z,9.30
2019-05-28T23:17:36.830Z,12.47
2019-05-28T23:20:12.118Z,11.95
2019-05-28T23:25:11.358Z,7.80
2019-05-28T23:27:40.658Z,9.38
2019-05-28T23:30:22.442Z,8.55
2019-05-28T23:32:40.754Z,6.58
2019-05-28T23:35:10.732Z,10.63
2019-05-28T23:37:39.476Z,9.28
2019-05-28T23:40:09.436Z,9.80
2019-05-28T23:42:38.350Z,6.17
2019-05-28T23:45:08.050Z,7.20
2019-05-28T23:47:36.711Z,16.52
2019-05-28T23:50:08.496Z,16.15
2019-05-28T23:52:38.130Z,15.68
2019-05-28T23:55:07.744Z,8.73
2019-05-28T23:57:36.506Z,10.28
